sensor_id;sensor_type;location;lat;lon;timestamp;temperature;humidity
20231;DHT22;10274;49.022;9.338;2022-07-22T00:00:28;16.50;94.40
20231;DHT22;10274;49.022;9.338;2022-07-22T00:02:55;16.30;98.80
20231;DHT22;10274;49.022;9.338;2022-07-22T00:05:22;16.20;99.90
20231;DHT22;10274;49.022;9.338;2022-07-22T00:07:48;16.30;99.90
20231;DHT22;10274;49.022;9.338;2022-07-22T00:10:17;16.40;99.90
20231;DHT22;10274;49.022;9.338;2022-07-22T00:12:43;16.50;99.90
20231;DHT22;10274;49.022;9.338;2022-07-22T00:15:10;16.50;99.90
20231;DHT22;10274;49.022;9.338;2022-07-22T00:17:37;16.60;99.90
20231;DHT22;10274;49.022;9.338;2022-07-22T00:20:05;16.60;99.90
20231;DHT22;10274;49.022;9.338;2022-07-22T00:22:33;16.60;99.90
20231;DHT22;10274;49.022;9.338;2022-07-22T00:25:00;16.20;98.10
20231;DHT22;10274;49.022;9.338;2022-07-22T00:27:28;16.00;99.90
20231;DHT22;10274;49.022;9.338;2022-07-22T00:29:54;16.10;99.90
20231;DHT22;10274;49.022;9.338;2022-07-22T00:32:21;16.10;99.90
20231;DHT22;10274;49.022;9.338;2022-07-22T00:34:48;16.20;99.90
20231;DHT22;10274;49.022;9.338;2022-07-22T00:37:14;16.30;99.90
20231;DHT22;10274;49.022;9.338;2022-07-22T00:39:41;16.10;99.90
20231;DHT22;10274;49.022;9.338;2022-07-22T00:42:08;16.00;99.90
20231;DHT22;10274;49.022;9.338;2022-07-22T00:44:36;16.00;99.90
20231;DHT22;10274;49.022;9.338;2022-07-22T00:47:03;16.00;99.90
20231;DHT22;10274;49.022;9.338;2022-07-22T00:49:30;15.90;99.90
20231;DHT22;10274;49.022;9.338;2022-07-22T00:51:57;15.90;99.90
20231;DHT22;10274;49.022;9.338;2022-07-22T00:54:23;15.90;99.90
20231;DHT22;10274;49.022;9.338;2022-07-22T00:56:50;15.90;99.90
20231;DHT22;10274;49.022;9.338;2022-07-22T00:59:17;16.10;99.90
20231;DHT22;10274;49.022;9.338;2022-07-22T01:01:45;16.00;99.90
20231;DHT22;10274;49.022;9.338;2022-07-22T01:04:12;15.80;99.90
20231;DHT22;10274;49.022;9.338;2022-07-22T01:06:39;15.60;99.90
20231;DHT22;10274;49.022;9.338;2022-07-22T01:09:10;15.60;99.90
20231;DHT22;10274;49.022;9.338;2022-07-22T01:11:37;15.70;99.90
20231;DHT22;10274;49.022;9.338;2022-07-22T01:14:04;15.70;99.90
20231;DHT22;10274;49.022;9.338;2022-07-22T01:16:31;15.80;99.90
20231;DHT22;10274;49.022;9.338;2022-07-22T01:18:59;15.90;99.90
20231;DHT22;10274;49.022;9.338;2022-07-22T01:21:27;15.80;99.90
20231;DHT22;10274;49.022;9.338;2022-07-22T01:23:53;15.60;99.90
20231;DHT22;10274;49.022;9.338;2022-07-22T01:26:20;15.50;99.90
20231;DHT22;10274;49.022;9.338;2022-07-22T01:28:47;15.70;99.90
20231;DHT22;10274;49.022;9.338;2022-07-22T01:31:14;15.60;99.90
20231;DHT22;10274;49.022;9.338;2022-07-22T01:33:40;15.70;99.90
20231;DHT22;10274;49.022;9.338;2022-07-22T01:36:07;15.70;99.90
20231;DHT22;10274;49.022;9.338;2022-07-22T01:38:35;15.40;99.90
20231;DHT22;10274;49.022;9.338;2022-07-22T01:41:03;15.30;99.90
20231;DHT22;10274;49.022;9.338;2022-07-22T01:43:30;15.30;99.90
20231;DHT22;10274;49.022;9.338;2022-07-22T01:45:57;15.40;99.90
20231;DHT22;10274;49.022;9.338;2022-07-22T01:48:24;15.50;99.90
20231;DHT22;10274;49.022;9.338;2022-07-22T01:50:51;15.60;99.90
20231;DHT22;10274;49.022;9.338;2022-07-22T01:53:17;15.50;99.90
20231;DHT22;10274;49.022;9.338;2022-07-22T01:55:46;15.70;99.90
20231;DHT22;10274;49.022;9.338;2022-07-22T01:58:12;15.50;99.90
20231;DHT22;10274;49.022;9.338;2022-07-22T02:00:39;15.40;99.90
20231;DHT22;10274;49.022;9.338;2022-07-22T02:03:06;15.50;99.90
20231;DHT22;10274;49.022;9.338;2022-07-22T02:05:33;15.50;99.90
20231;DHT22;10274;49.022;9.338;2022-07-22T02:08:01;15.50;99.90
20231;DHT22;10274;49.022;9.338;2022-07-22T02:10:28;15.50;99.90
20231;DHT22;10274;49.022;9.338;2022-07-22T02:12:57;15.60;99.90
20231;DHT22;10274;49.022;9.338;2022-07-22T02:15:24;15.60;99.90
20231;DHT22;10274;49.022;9.338;2022-07-22T02:17:51;15.60;99.90
20231;DHT22;10274;49.022;9.338;2022-07-22T02:20:17;15.50;99.90
20231;DHT22;10274;49.022;9.338;2022-07-22T02:22:44;15.30;99.90
20231;DHT22;10274;49.022;9.338;2022-07-22T02:25:11;15.30;99.90
20231;DHT22;10274;49.022;9.338;2022-07-22T02:27:38;15.30;99.90
20231;DHT22;10274;49.022;9.338;2022-07-22T02:30:08;15.30;99.90
20231;DHT22;10274;49.022;9.338;2022-07-22T02:32:35;15.20;99.90
20231;DHT22;10274;49.022;9.338;2022-07-22T02:35:02;15.20;99.90
20231;DHT22;10274;49.022;9.338;2022-07-22T02:37:29;15.20;99.90
20231;DHT22;10274;49.022;9.338;2022-07-22T02:39:56;15.10;99.90
20231;DHT22;10274;49.022;9.338;2022-07-22T02:42:22;15.00;99.90
20231;DHT22;10274;49.022;9.338;2022-07-22T02:44:49;14.80;99.90
20231;DHT22;10274;49.022;9.338;2022-07-22T02:47:17;14.70;99.90
20231;DHT22;10274;49.022;9.338;2022-07-22T02:49:44;14.80;99.90
20231;DHT22;10274;49.022;9.338;2022-07-22T02:52:10;15.00;99.90
20231;DHT22;10274;49.022;9.338;2022-07-22T02:54:37;15.10;99.90
20231;DHT22;10274;49.022;9.338;2022-07-22T02:57:04;15.10;99.90
20231;DHT22;10274;49.022;9.338;2022-07-22T02:59:30;15.10;99.90
20231;DHT22;10274;49.022;9.338;2022-07-22T03:01:57;14.90;99.90
20231;DHT22;10274;49.022;9.338;2022-07-22T03:04:25;14.70;99.90
20231;DHT22;10274;49.022;9.338;2022-07-22T03:06:52;14.90;99.90
20231;DHT22;10274;49.022;9.338;2022-07-22T03:09:18;15.00;99.90
20231;DHT22;10274;49.022;9.338;2022-07-22T03:11:45;15.10;99.90
20231;DHT22;10274;49.022;9.338;2022-07-22T03:14:12;15.10;99.90
20231;DHT22;10274;49.022;9.338;2022-07-22T03:16:39;14.90;99.90
20231;DHT22;10274;49.022;9.338;2022-07-22T03:19:05;14.70;99.90
20231;DHT22;10274;49.022;9.338;2022-07-22T03:21:33;14.70;99.90
20231;DHT22;10274;49.022;9.338;2022-07-22T03:24:00;14.90;99.90
20231;DHT22;10274;49.022;9.338;2022-07-22T03:26:27;14.90;99.90
20231;DHT22;10274;49.022;9.338;2022-07-22T03:28:54;14.90;99.90
20231;DHT22;10274;49.022;9.338;2022-07-22T03:31:20;14.70;99.90
20231;DHT22;10274;49.022;9.338;2022-07-22T03:33:47;14.80;99.90
20231;DHT22;10274;49.022;9.338;2022-07-22T03:36:14;14.80;99.90
20231;DHT22;10274;49.022;9.338;2022-07-22T03:38:42;14.70;99.90
20231;DHT22;10274;49.022;9.338;2022-07-22T03:41:08;14.60;99.90
20231;DHT22;10274;49.022;9.338;2022-07-22T03:43:35;14.70;99.90
20231;DHT22;10274;49.022;9.338;2022-07-22T03:46:02;14.80;99.90
20231;DHT22;10274;49.022;9.338;2022-07-22T03:48:28;14.70;99.90
20231;DHT22;10274;49.022;9.338;2022-07-22T03:50:55;14.80;99.90
20231;DHT22;10274;49.022;9.338;2022-07-22T03:53:22;14.90;99.90
20231;DHT22;10274;49.022;9.338;2022-07-22T03:55:50;14.90;99.90
20231;DHT22;10274;49.022;9.338;2022-07-22T03:58:17;15.00;99.90
20231;DHT22;10274;49.022;9.338;2022-07-22T04:00:44;15.10;99.90
20231;DHT22;10274;49.022;9.338;2022-07-22T04:03:11;15.10;99.90
20231;DHT22;10274;49.022;9.338;2022-07-22T04:05:38;15.10;99.90
20231;DHT22;10274;49.022;9.338;2022-07-22T04:08:05;14.90;99.90
20231;DHT22;10274;49.022;9.338;2022-07-22T04:10:31;14.80;99.90
20231;DHT22;10274;49.022;9.338;2022-07-22T04:12:59;14.80;99.90
20231;DHT22;10274;49.022;9.338;2022-07-22T04:15:26;14.90;99.90
20231;DHT22;10274;49.022;9.338;2022-07-22T04:17:53;15.00;99.90
20231;DHT22;10274;49.022;9.338;2022-07-22T04:20:20;15.00;99.90
20231;DHT22;10274;49.022;9.338;2022-07-22T04:22:46;15.00;99.90
20231;DHT22;10274;49.022;9.338;2022-07-22T04:25:13;15.00;99.90
20231;DHT22;10274;49.022;9.338;2022-07-22T04:27:40;15.10;99.90
20231;DHT22;10274;49.022;9.338;2022-07-22T04:30:09;15.00;99.90
20231;DHT22;10274;49.022;9.338;2022-07-22T04:32:36;14.70;99.90
20231;DHT22;10274;49.022;9.338;2022-07-22T04:35:03;14.80;99.90
20231;DHT22;10274;49.022;9.338;2022-07-22T04:37:30;14.80;99.90
20231;DHT22;10274;49.022;9.338;2022-07-22T04:39:57;14.90;99.90
20231;DHT22;10274;49.022;9.338;2022-07-22T04:42:24;15.00;99.90
20231;DHT22;10274;49.022;9.338;2022-07-22T04:44:50;15.00;99.90
20231;DHT22;10274;49.022;9.338;2022-07-22T04:47:18;15.00;99.90
20231;DHT22;10274;49.022;9.338;2022-07-22T04:49:45;15.00;99.90
20231;DHT22;10274;49.022;9.338;2022-07-22T04:52:11;15.10;99.90
20231;DHT22;10274;49.022;9.338;2022-07-22T04:54:38;15.10;99.90
20231;DHT22;10274;49.022;9.338;2022-07-22T04:57:05;15.20;99.90
20231;DHT22;10274;49.022;9.338;2022-07-22T04:59:31;15.30;99.90
20231;DHT22;10274;49.022;9.338;2022-07-22T05:01:58;15.20;99.90
20231;DHT22;10274;49.022;9.338;2022-07-22T05:04:26;15.20;99.90
20231;DHT22;10274;49.022;9.338;2022-07-22T05:06:53;15.20;99.90
20231;DHT22;10274;49.022;9.338;2022-07-22T05:09:20;15.30;99.90
20231;DHT22;10274;49.022;9.338;2022-07-22T05:11:46;15.50;99.90
20231;DHT22;10274;49.022;9.338;2022-07-22T05:14:13;15.70;99.90
20231;DHT22;10274;49.022;9.338;2022-07-22T05:16:40;15.80;99.90
20231;DHT22;10274;49.022;9.338;2022-07-22T05:19:07;16.00;99.90
20231;DHT22;10274;49.022;9.338;2022-07-22T05:21:35;16.10;99.90
20231;DHT22;10274;49.022;9.338;2022-07-22T05:24:01;16.10;99.90
20231;DHT22;10274;49.022;9.338;2022-07-22T05:26:29;16.20;99.90
20231;DHT22;10274;49.022;9.338;2022-07-22T05:28:58;16.30;99.90
20231;DHT22;10274;49.022;9.338;2022-07-22T05:31:24;16.40;99.90
20231;DHT22;10274;49.022;9.338;2022-07-22T05:33:51;16.50;99.90
20231;DHT22;10274;49.022;9.338;2022-07-22T05:36:18;16.70;99.90
20231;DHT22;10274;49.022;9.338;2022-07-22T05:38:46;17.00;99.90
20231;DHT22;10274;49.022;9.338;2022-07-22T05:41:12;17.00;99.90
20231;DHT22;10274;49.022;9.338;2022-07-22T05:43:39;17.10;99.90
20231;DHT22;10274;49.022;9.338;2022-07-22T05:46:06;17.30;99.90
20231;DHT22;10274;49.022;9.338;2022-07-22T05:48:33;17.40;99.90
20231;DHT22;10274;49.022;9.338;2022-07-22T05:51:00;17.50;99.90
20231;DHT22;10274;49.022;9.338;2022-07-22T05:53:27;17.70;99.90
20231;DHT22;10274;49.022;9.338;2022-07-22T05:55:55;18.00;99.90
20231;DHT22;10274;49.022;9.338;2022-07-22T05:58:22;18.10;95.30
20231;DHT22;10274;49.022;9.338;2022-07-22T06:00:48;18.20;73.80
20231;DHT22;10274;49.022;9.338;2022-07-22T06:03:15;18.20;39.50
20231;DHT22;10274;49.022;9.338;2022-07-22T06:05:41;18.30;37.60
20231;DHT22;10274;49.022;9.338;2022-07-22T06:08:08;18.50;23.80
20231;DHT22;10274;49.022;9.338;2022-07-22T06:10:35;18.60;23.10
20231;DHT22;10274;49.022;9.338;2022-07-22T06:13:03;18.90;24.70
20231;DHT22;10274;49.022;9.338;2022-07-22T06:15:29;19.10;12.50
20231;DHT22;10274;49.022;9.338;2022-07-22T06:17:56;19.20;7.90
20231;DHT22;10274;49.022;9.338;2022-07-22T06:20:23;19.30;1.00
20231;DHT22;10274;49.022;9.338;2022-07-22T06:22:50;19.30;1.00
20231;DHT22;10274;49.022;9.338;2022-07-22T06:25:16;19.30;1.00
20231;DHT22;10274;49.022;9.338;2022-07-22T06:27:43;19.50;1.00
20231;DHT22;10274;49.022;9.338;2022-07-22T06:30:12;19.60;1.00
20231;DHT22;10274;49.022;9.338;2022-07-22T06:32:39;19.70;1.00
20231;DHT22;10274;49.022;9.338;2022-07-22T06:35:07;19.70;1.00
20231;DHT22;10274;49.022;9.338;2022-07-22T06:37:33;19.90;1.00
20231;DHT22;10274;49.022;9.338;2022-07-22T06:40:00;20.10;1.00
20231;DHT22;10274;49.022;9.338;2022-07-22T06:42:27;20.20;1.00
20231;DHT22;10274;49.022;9.338;2022-07-22T06:44:54;20.40;1.00
20231;DHT22;10274;49.022;9.338;2022-07-22T06:47:22;20.60;1.00
20231;DHT22;10274;49.022;9.338;2022-07-22T06:49:49;20.70;1.00
20231;DHT22;10274;49.022;9.338;2022-07-22T06:52:15;20.90;1.00
20231;DHT22;10274;49.022;9.338;2022-07-22T06:54:42;21.10;1.00
20231;DHT22;10274;49.022;9.338;2022-07-22T06:57:09;21.30;1.00
20231;DHT22;10274;49.022;9.338;2022-07-22T06:59:36;21.60;1.00
20231;DHT22;10274;49.022;9.338;2022-07-22T07:02:03;21.80;1.00
20231;DHT22;10274;49.022;9.338;2022-07-22T07:04:31;21.90;1.00
20231;DHT22;10274;49.022;9.338;2022-07-22T07:06:58;21.90;1.00
20231;DHT22;10274;49.022;9.338;2022-07-22T07:09:24;22.00;99.90
20231;DHT22;10274;49.022;9.338;2022-07-22T07:11:51;21.90;99.90
20231;DHT22;10274;49.022;9.338;2022-07-22T07:14:18;22.10;99.90
20231;DHT22;10274;49.022;9.338;2022-07-22T07:16:44;22.20;1.00
20231;DHT22;10274;49.022;9.338;2022-07-22T07:19:11;22.30;1.00
20231;DHT22;10274;49.022;9.338;2022-07-22T07:21:39;22.40;1.00
20231;DHT22;10274;49.022;9.338;2022-07-22T07:24:06;22.60;1.00
20231;DHT22;10274;49.022;9.338;2022-07-22T07:26:33;22.40;1.00
20231;DHT22;10274;49.022;9.338;2022-07-22T07:29:00;22.70;1.00
20231;DHT22;10274;49.022;9.338;2022-07-22T07:31:26;22.90;99.90
20231;DHT22;10274;49.022;9.338;2022-07-22T07:33:53;23.10;99.90
20231;DHT22;10274;49.022;9.338;2022-07-22T07:36:20;23.20;1.00
20231;DHT22;10274;49.022;9.338;2022-07-22T07:38:49;23.10;99.90
20231;DHT22;10274;49.022;9.338;2022-07-22T07:41:16;23.10;82.70
20231;DHT22;10274;49.022;9.338;2022-07-22T07:43:43;23.20;1.00
20231;DHT22;10274;49.022;9.338;2022-07-22T07:46:09;23.20;1.00
20231;DHT22;10274;49.022;9.338;2022-07-22T07:48:36;23.70;1.00
20231;DHT22;10274;49.022;9.338;2022-07-22T07:51:03;23.70;1.00
20231;DHT22;10274;49.022;9.338;2022-07-22T07:53:30;23.80;13.80
20231;DHT22;10274;49.022;9.338;2022-07-22T07:55:58;23.80;99.90
20231;DHT22;10274;49.022;9.338;2022-07-22T07:58:25;23.90;99.90
20231;DHT22;10274;49.022;9.338;2022-07-22T08:00:51;24.10;1.00
20231;DHT22;10274;49.022;9.338;2022-07-22T08:03:18;24.20;99.90
20231;DHT22;10274;49.022;9.338;2022-07-22T08:05:45;24.50;1.00
20231;DHT22;10274;49.022;9.338;2022-07-22T08:08:12;24.80;99.90
20231;DHT22;10274;49.022;9.338;2022-07-22T08:10:38;25.10;1.00
20231;DHT22;10274;49.022;9.338;2022-07-22T08:13:06;25.50;31.80
20231;DHT22;10274;49.022;9.338;2022-07-22T08:15:33;27.10;99.90
20231;DHT22;10274;49.022;9.338;2022-07-22T08:18:00;27.90;1.00
20231;DHT22;10274;49.022;9.338;2022-07-22T08:20:27;27.10;1.00
20231;DHT22;10274;49.022;9.338;2022-07-22T08:22:54;27.20;1.00
20231;DHT22;10274;49.022;9.338;2022-07-22T08:25:21;28.30;1.00
20231;DHT22;10274;49.022;9.338;2022-07-22T08:27:48;28.80;1.00
20231;DHT22;10274;49.022;9.338;2022-07-22T08:30:17;28.60;99.90
20231;DHT22;10274;49.022;9.338;2022-07-22T08:32:44;28.50;1.00
20231;DHT22;10274;49.022;9.338;2022-07-22T08:35:11;28.30;93.40
20231;DHT22;10274;49.022;9.338;2022-07-22T08:37:38;28.80;99.90
20231;DHT22;10274;49.022;9.338;2022-07-22T08:40:07;29.20;28.80
20231;DHT22;10274;49.022;9.338;2022-07-22T08:42:36;29.40;99.90
20231;DHT22;10274;49.022;9.338;2022-07-22T08:45:04;29.80;1.00
20231;DHT22;10274;49.022;9.338;2022-07-22T08:47:33;30.10;99.90
20231;DHT22;10274;49.022;9.338;2022-07-22T08:50:00;30.10;20.50
20231;DHT22;10274;49.022;9.338;2022-07-22T08:52:27;30.00;99.90
20231;DHT22;10274;49.022;9.338;2022-07-22T08:54:54;29.90;1.00
20231;DHT22;10274;49.022;9.338;2022-07-22T08:57:21;29.80;99.90
20231;DHT22;10274;49.022;9.338;2022-07-22T08:59:49;30.80;21.80
20231;DHT22;10274;49.022;9.338;2022-07-22T09:02:16;31.00;1.00
20231;DHT22;10274;49.022;9.338;2022-07-22T09:04:54;30.90;1.00
20231;DHT22;10274;49.022;9.338;2022-07-22T09:07:25;30.60;1.00
20231;DHT22;10274;49.022;9.338;2022-07-22T09:09:53;31.10;99.90
20231;DHT22;10274;49.022;9.338;2022-07-22T09:12:19;30.70;1.00
20231;DHT22;10274;49.022;9.338;2022-07-22T09:14:48;31.30;1.00
20231;DHT22;10274;49.022;9.338;2022-07-22T09:17:23;31.30;1.00
20231;DHT22;10274;49.022;9.338;2022-07-22T09:19:51;31.80;1.00
20231;DHT22;10274;49.022;9.338;2022-07-22T09:22:30;30.90;1.00
20231;DHT22;10274;49.022;9.338;2022-07-22T09:24:58;31.50;40.50
20231;DHT22;10274;49.022;9.338;2022-07-22T09:27:26;31.70;99.90
20231;DHT22;10274;49.022;9.338;2022-07-22T09:29:52;31.30;1.00
20231;DHT22;10274;49.022;9.338;2022-07-22T09:32:21;31.20;30.20
20231;DHT22;10274;49.022;9.338;2022-07-22T09:34:48;31.30;99.90
20231;DHT22;10274;49.022;9.338;2022-07-22T09:37:17;31.80;1.00
20231;DHT22;10274;49.022;9.338;2022-07-22T09:39:43;31.30;1.00
20231;DHT22;10274;49.022;9.338;2022-07-22T09:42:10;31.50;1.00
20231;DHT22;10274;49.022;9.338;2022-07-22T09:44:37;31.60;1.00
20231;DHT22;10274;49.022;9.338;2022-07-22T09:47:04;31.70;1.00
20231;DHT22;10274;49.022;9.338;2022-07-22T09:49:32;31.90;1.00
20231;DHT22;10274;49.022;9.338;2022-07-22T09:52:00;31.40;1.00
20231;DHT22;10274;49.022;9.338;2022-07-22T09:54:29;32.20;1.00
20231;DHT22;10274;49.022;9.338;2022-07-22T09:56:56;32.60;99.90
20231;DHT22;10274;49.022;9.338;2022-07-22T09:59:23;32.40;1.00
20231;DHT22;10274;49.022;9.338;2022-07-22T10:01:53;32.40;1.00
20231;DHT22;10274;49.022;9.338;2022-07-22T10:04:23;32.80;1.00
20231;DHT22;10274;49.022;9.338;2022-07-22T10:06:51;32.90;99.90
20231;DHT22;10274;49.022;9.338;2022-07-22T10:09:18;33.40;99.90
20231;DHT22;10274;49.022;9.338;2022-07-22T10:11:48;33.60;1.00
20231;DHT22;10274;49.022;9.338;2022-07-22T10:14:16;33.40;1.00
20231;DHT22;10274;49.022;9.338;2022-07-22T10:16:44;33.60;1.00
20231;DHT22;10274;49.022;9.338;2022-07-22T10:19:11;33.90;1.00
20231;DHT22;10274;49.022;9.338;2022-07-22T10:21:38;33.70;1.00
20231;DHT22;10274;49.022;9.338;2022-07-22T10:24:09;33.60;83.10
20231;DHT22;10274;49.022;9.338;2022-07-22T10:26:52;33.50;97.90
20231;DHT22;10274;49.022;9.338;2022-07-22T10:29:27;33.80;1.00
20231;DHT22;10274;49.022;9.338;2022-07-22T10:32:25;34.10;83.90
20231;DHT22;10274;49.022;9.338;2022-07-22T10:37:58;33.10;99.90
20231;DHT22;10274;49.022;9.338;2022-07-22T10:40:27;32.50;1.00
20231;DHT22;10274;49.022;9.338;2022-07-22T10:43:11;32.70;66.90
20231;DHT22;10274;49.022;9.338;2022-07-22T10:45:41;32.70;1.00
20231;DHT22;10274;49.022;9.338;2022-07-22T10:48:12;33.50;1.00
20231;DHT22;10274;49.022;9.338;2022-07-22T10:50:50;33.30;1.00
20231;DHT22;10274;49.022;9.338;2022-07-22T10:53:19;33.50;1.00
20231;DHT22;10274;49.022;9.338;2022-07-22T10:56:05;33.80;99.90
20231;DHT22;10274;49.022;9.338;2022-07-22T10:59:06;33.80;1.00
20231;DHT22;10274;49.022;9.338;2022-07-22T11:01:34;34.30;99.90
20231;DHT22;10274;49.022;9.338;2022-07-22T11:04:13;33.80;1.00
20231;DHT22;10274;49.022;9.338;2022-07-22T11:06:40;33.70;99.90
20231;DHT22;10274;49.022;9.338;2022-07-22T11:09:08;32.90;1.00
20231;DHT22;10274;49.022;9.338;2022-07-22T11:11:38;33.10;1.00
20231;DHT22;10274;49.022;9.338;2022-07-22T11:14:22;34.10;99.90
20231;DHT22;10274;49.022;9.338;2022-07-22T11:16:53;34.40;99.90
20231;DHT22;10274;49.022;9.338;2022-07-22T11:19:21;33.50;99.90
20231;DHT22;10274;49.022;9.338;2022-07-22T11:21:50;33.30;99.90
20231;DHT22;10274;49.022;9.338;2022-07-22T11:24:19;33.50;99.90
20231;DHT22;10274;49.022;9.338;2022-07-22T11:26:47;34.40;99.90
20231;DHT22;10274;49.022;9.338;2022-07-22T11:29:16;33.60;99.90
20231;DHT22;10274;49.022;9.338;2022-07-22T11:31:44;33.70;99.90
20231;DHT22;10274;49.022;9.338;2022-07-22T11:34:14;33.80;99.90
20231;DHT22;10274;49.022;9.338;2022-07-22T11:36:43;34.20;99.90
20231;DHT22;10274;49.022;9.338;2022-07-22T11:39:11;34.00;99.90
20231;DHT22;10274;49.022;9.338;2022-07-22T11:41:38;33.80;99.90
20231;DHT22;10274;49.022;9.338;2022-07-22T11:44:05;33.60;99.90
20231;DHT22;10274;49.022;9.338;2022-07-22T11:46:37;33.40;99.90
20231;DHT22;10274;49.022;9.338;2022-07-22T11:49:05;34.10;99.90
20231;DHT22;10274;49.022;9.338;2022-07-22T11:51:35;33.60;99.90
20231;DHT22;10274;49.022;9.338;2022-07-22T11:54:03;33.70;99.90
20231;DHT22;10274;49.022;9.338;2022-07-22T11:56:30;33.40;99.90
20231;DHT22;10274;49.022;9.338;2022-07-22T11:58:57;34.40;99.90
20231;DHT22;10274;49.022;9.338;2022-07-22T12:01:28;33.90;99.90
20231;DHT22;10274;49.022;9.338;2022-07-22T12:03:58;33.10;99.90
20231;DHT22;10274;49.022;9.338;2022-07-22T12:06:27;33.30;99.90
20231;DHT22;10274;49.022;9.338;2022-07-22T12:08:55;33.10;99.90
20231;DHT22;10274;49.022;9.338;2022-07-22T12:11:23;33.50;99.90
20231;DHT22;10274;49.022;9.338;2022-07-22T12:13:52;33.00;99.90
20231;DHT22;10274;49.022;9.338;2022-07-22T12:16:24;32.80;99.90
20231;DHT22;10274;49.022;9.338;2022-07-22T12:18:56;32.80;99.90
20231;DHT22;10274;49.022;9.338;2022-07-22T12:21:26;33.20;99.90
20231;DHT22;10274;49.022;9.338;2022-07-22T12:23:56;33.40;99.90
20231;DHT22;10274;49.022;9.338;2022-07-22T12:26:42;33.30;99.90
20231;DHT22;10274;49.022;9.338;2022-07-22T12:29:18;33.30;99.90
20231;DHT22;10274;49.022;9.338;2022-07-22T12:31:46;33.30;99.90
20231;DHT22;10274;49.022;9.338;2022-07-22T12:34:13;33.30;99.90
20231;DHT22;10274;49.022;9.338;2022-07-22T12:36:45;32.80;99.90
20231;DHT22;10274;49.022;9.338;2022-07-22T12:39:14;32.60;99.90
20231;DHT22;10274;49.022;9.338;2022-07-22T12:41:46;32.40;99.90
20231;DHT22;10274;49.022;9.338;2022-07-22T12:44:16;33.00;99.90
20231;DHT22;10274;49.022;9.338;2022-07-22T12:46:44;33.10;99.90
20231;DHT22;10274;49.022;9.338;2022-07-22T12:49:12;33.60;99.90
20231;DHT22;10274;49.022;9.338;2022-07-22T12:51:38;34.30;99.90
20231;DHT22;10274;49.022;9.338;2022-07-22T12:54:06;34.10;99.90
20231;DHT22;10274;49.022;9.338;2022-07-22T12:56:33;34.30;99.90
20231;DHT22;10274;49.022;9.338;2022-07-22T12:59:00;34.00;99.90
20231;DHT22;10274;49.022;9.338;2022-07-22T13:01:27;33.90;99.90
20231;DHT22;10274;49.022;9.338;2022-07-22T13:03:53;33.70;99.90
20231;DHT22;10274;49.022;9.338;2022-07-22T13:06:20;33.10;99.90
20231;DHT22;10274;49.022;9.338;2022-07-22T13:08:47;33.20;99.90
20231;DHT22;10274;49.022;9.338;2022-07-22T13:11:15;33.20;99.90
20231;DHT22;10274;49.022;9.338;2022-07-22T13:13:42;33.50;99.90
20231;DHT22;10274;49.022;9.338;2022-07-22T13:16:11;34.00;99.90
20231;DHT22;10274;49.022;9.338;2022-07-22T13:18:37;33.90;99.90
20231;DHT22;10274;49.022;9.338;2022-07-22T13:21:04;34.10;99.90
20231;DHT22;10274;49.022;9.338;2022-07-22T13:23:31;34.30;99.90
20231;DHT22;10274;49.022;9.338;2022-07-22T13:25:57;34.50;99.90
20231;DHT22;10274;49.022;9.338;2022-07-22T13:28:25;34.00;99.90
20231;DHT22;10274;49.022;9.338;2022-07-22T13:30:52;34.60;99.90
20231;DHT22;10274;49.022;9.338;2022-07-22T13:33:19;34.50;99.90
20231;DHT22;10274;49.022;9.338;2022-07-22T13:35:45;33.90;99.90
20231;DHT22;10274;49.022;9.338;2022-07-22T13:38:12;34.00;99.90
20231;DHT22;10274;49.022;9.338;2022-07-22T13:40:42;33.60;99.90
20231;DHT22;10274;49.022;9.338;2022-07-22T13:43:15;33.70;99.90
20231;DHT22;10274;49.022;9.338;2022-07-22T13:45:43;34.00;99.90
20231;DHT22;10274;49.022;9.338;2022-07-22T13:48:10;33.90;99.90
20231;DHT22;10274;49.022;9.338;2022-07-22T13:50:37;34.40;99.90
20231;DHT22;10274;49.022;9.338;2022-07-22T13:53:03;34.40;99.90
20231;DHT22;10274;49.022;9.338;2022-07-22T13:55:30;34.00;99.90
20231;DHT22;10274;49.022;9.338;2022-07-22T13:57:57;33.80;99.90
20231;DHT22;10274;49.022;9.338;2022-07-22T14:00:24;34.00;99.90
20231;DHT22;10274;49.022;9.338;2022-07-22T14:02:52;34.30;99.90
20231;DHT22;10274;49.022;9.338;2022-07-22T14:05:18;33.90;99.90
20231;DHT22;10274;49.022;9.338;2022-07-22T14:07:45;33.50;99.90
20231;DHT22;10274;49.022;9.338;2022-07-22T14:10:12;33.60;99.90
20231;DHT22;10274;49.022;9.338;2022-07-22T14:12:40;33.90;99.90
20231;DHT22;10274;49.022;9.338;2022-07-22T14:15:07;34.00;99.90
20231;DHT22;10274;49.022;9.338;2022-07-22T14:17:35;34.10;99.90
20231;DHT22;10274;49.022;9.338;2022-07-22T14:20:03;33.70;99.90
20231;DHT22;10274;49.022;9.338;2022-07-22T14:22:32;33.70;99.90
20231;DHT22;10274;49.022;9.338;2022-07-22T14:24:59;33.60;99.90
20231;DHT22;10274;49.022;9.338;2022-07-22T14:27:26;33.50;99.90
20231;DHT22;10274;49.022;9.338;2022-07-22T14:29:52;33.40;99.90
20231;DHT22;10274;49.022;9.338;2022-07-22T14:32:19;33.20;99.90
20231;DHT22;10274;49.022;9.338;2022-07-22T14:34:46;33.40;99.90
20231;DHT22;10274;49.022;9.338;2022-07-22T14:37:14;33.00;99.90
20231;DHT22;10274;49.022;9.338;2022-07-22T14:39:41;32.80;99.90
20231;DHT22;10274;49.022;9.338;2022-07-22T14:42:07;33.10;99.90
20231;DHT22;10274;49.022;9.338;2022-07-22T14:44:34;33.40;99.90
20231;DHT22;10274;49.022;9.338;2022-07-22T14:47:01;33.30;99.90
20231;DHT22;10274;49.022;9.338;2022-07-22T14:49:27;33.30;99.90
20231;DHT22;10274;49.022;9.338;2022-07-22T14:51:54;33.20;99.90
20231;DHT22;10274;49.022;9.338;2022-07-22T14:54:22;33.40;99.90
20231;DHT22;10274;49.022;9.338;2022-07-22T14:56:49;33.30;99.90
20231;DHT22;10274;49.022;9.338;2022-07-22T14:59:15;33.10;99.90
20231;DHT22;10274;49.022;9.338;2022-07-22T15:01:42;33.10;99.90
20231;DHT22;10274;49.022;9.338;2022-07-22T15:04:09;32.60;99.90
20231;DHT22;10274;49.022;9.338;2022-07-22T15:06:35;32.60;99.90
20231;DHT22;10274;49.022;9.338;2022-07-22T15:09:02;32.40;99.90
20231;DHT22;10274;49.022;9.338;2022-07-22T15:11:30;32.20;99.90
20231;DHT22;10274;49.022;9.338;2022-07-22T15:13:57;32.30;99.90
20231;DHT22;10274;49.022;9.338;2022-07-22T15:16:24;32.50;99.90
20231;DHT22;10274;49.022;9.338;2022-07-22T15:18:50;32.80;99.90
20231;DHT22;10274;49.022;9.338;2022-07-22T15:21:17;32.70;99.90
20231;DHT22;10274;49.022;9.338;2022-07-22T15:23:44;33.10;99.90
20231;DHT22;10274;49.022;9.338;2022-07-22T15:26:12;33.30;99.90
20231;DHT22;10274;49.022;9.338;2022-07-22T15:28:40;32.80;99.90
20231;DHT22;10274;49.022;9.338;2022-07-22T15:31:08;32.40;99.90
20231;DHT22;10274;49.022;9.338;2022-07-22T15:33:36;32.50;99.90
20231;DHT22;10274;49.022;9.338;2022-07-22T15:36:04;32.50;99.90
20231;DHT22;10274;49.022;9.338;2022-07-22T15:38:31;32.50;99.90
20231;DHT22;10274;49.022;9.338;2022-07-22T15:40:58;32.70;99.90